Terminal Aerodrome Forecast
Issued by NWS Mobile, AL

Home | Current Version | Previous Version | Text Only | Print | Product List | Glossary On
Versions: 1 2 3 4 5 6 7 8 9 10 11 12 13 14 15 16 17 18 19 20
000
FTUS44 KMOB 291148 AAA
TAFMOB
TAF AMD
KMOB 291148Z 2912/3012 14007KT P6SM FEW005 BKN150 OVC220
      TEMPO 2913/2916 3SM SHRA
     FM291800 21010KT P6SM VCTS BKN030CB
      TEMPO 2920/2923 VRB15KT 3SM TSRA BKN010CB
     FM300000 20005KT P6SM SCT030 BKN100=

USA.gov is the U.S. government's official web portal to all federal, state and local government web resources and services.